Arlington, OR

11:01 PM PDT on August 31, 2016 (GMT -0700)
MesoWest | | Change Station

Elev 890 ft 45.72 °N, 120.18 °W | Updated 44 minutes ago

Clear
Clear
67 °F
Feels Like 67 °F
N
12
Wind Variable Wind from West
Gusts 13.0 mph

Today
High -- | Low -- °F
--% Chance of Precip.
Yesterday
High -- | Low -- °F
Precip. -- in
Pressure 29.91 in
Visibility 10.0 miles
Clouds Clear
Dew Point 53 °F
Humidity 61%
Rainfall in
Snow Depth Not available.
6:21 AM 7:39 PM
Waning Crescent, 0% visible
METAR KHRI 010553Z AUTO 22015G24KT 10SM CLR 21/11 A2992 RMK AO2 SLP127 T02060111 10300 20200 51027
Pressure 29.91 in
Visibility 10.0 miles
Clouds Clear
Dew Point 53 °F
Humidity 61%
Rainfall in
Snow Depth Not available.
6:21 AM 7:39 PM
Waning Crescent, 0% visible
METAR KHRI 010553Z AUTO 22015G24KT 10SM CLR 21/11 A2992 RMK AO2 SLP127 T02060111 10300 20200 51027

10-Day Weather Forecast

Almanac

Astronomy

Aug. 31, 2016 Rise Set
Actual Time
Civil Twilight
Nautical Twilight
Astronomical Twilight
Moon
Length of Visible Light
Length of Day
Tomorrow will be .
, % of the Moon is Illuminated

Today's Extremes

State Highs State Lows

Community

WunderPhotos

Upload Photos

1,936,313 photos uploaded!

WunderBlog® & News

Nearby

Air Quality

  Air Quality AQ Index Pollutant
Not available.

Snow Depth

Station Depth Elevation

Earthquake Activity

City Distance Mag. Time & Date
Minimum magnitude displayed is 2.5.

Coastal Water Temperatures

Place Temperature

Stations

Nearby Weather Stations

Station Location Temp. Windchill Dew Point Humidity Wind Precip. Elev Updated Type
                   

Watches & Warnings

There are currently no watches in effect.